sensor_id;sensor_type;location;lat;lon;timestamp;temperature;humidity
15997;DHT22;8103;51.340;12.326;2023-04-28T00:02:02;8.40;82.70
15997;DHT22;8103;51.340;12.326;2023-04-28T00:08:29;8.30;83.70
15997;DHT22;8103;51.340;12.326;2023-04-28T00:10:55;8.20;84.90
15997;DHT22;8103;51.340;12.326;2023-04-28T00:13:23;8.10;86.40
15997;DHT22;8103;51.340;12.326;2023-04-28T00:15:50;8.20;89.70
15997;DHT22;8103;51.340;12.326;2023-04-28T00:18:19;8.10;89.50
15997;DHT22;8103;51.340;12.326;2023-04-28T00:20:47;8.10;87.80
15997;DHT22;8103;51.340;12.326;2023-04-28T00:23:14;8.00;87.80
15997;DHT22;8103;51.340;12.326;2023-04-28T00:25:41;8.00;88.10
15997;DHT22;8103;51.340;12.326;2023-04-28T00:28:11;8.00;88.00
15997;DHT22;8103;51.340;12.326;2023-04-28T00:30:41;8.00;88.90
15997;DHT22;8103;51.340;12.326;2023-04-28T00:33:08;8.00;91.20
15997;DHT22;8103;51.340;12.326;2023-04-28T00:35:35;7.90;86.50
15997;DHT22;8103;51.340;12.326;2023-04-28T00:38:01;7.90;86.90
15997;DHT22;8103;51.340;12.326;2023-04-28T00:40:33;7.90;88.00
15997;DHT22;8103;51.340;12.326;2023-04-28T00:43:00;7.80;89.60
15997;DHT22;8103;51.340;12.326;2023-04-28T00:45:27;7.80;90.40
15997;DHT22;8103;51.340;12.326;2023-04-28T00:47:56;7.80;91.40
15997;DHT22;8103;51.340;12.326;2023-04-28T00:50:24;7.70;90.90
15997;DHT22;8103;51.340;12.326;2023-04-28T00:52:52;7.70;91.70
15997;DHT22;8103;51.340;12.326;2023-04-28T00:55:18;7.70;91.80
15997;DHT22;8103;51.340;12.326;2023-04-28T00:57:47;7.70;93.50
15997;DHT22;8103;51.340;12.326;2023-04-28T01:02:43;7.70;88.80
15997;DHT22;8103;51.340;12.326;2023-04-28T01:05:11;7.70;83.40
15997;DHT22;8103;51.340;12.326;2023-04-28T01:07:40;7.80;82.40
15997;DHT22;8103;51.340;12.326;2023-04-28T01:10:07;7.70;81.20
15997;DHT22;8103;51.340;12.326;2023-04-28T01:12:34;7.70;81.20
15997;DHT22;8103;51.340;12.326;2023-04-28T01:15:01;7.70;82.30
15997;DHT22;8103;51.340;12.326;2023-04-28T01:17:29;7.70;82.80
15997;DHT22;8103;51.340;12.326;2023-04-28T01:19:56;7.50;82.70
15997;DHT22;8103;51.340;12.326;2023-04-28T01:22:22;7.70;83.50
15997;DHT22;8103;51.340;12.326;2023-04-28T01:24:49;7.70;83.80
15997;DHT22;8103;51.340;12.326;2023-04-28T01:27:16;7.70;85.00
15997;DHT22;8103;51.340;12.326;2023-04-28T01:29:43;7.80;86.10
15997;DHT22;8103;51.340;12.326;2023-04-28T01:32:10;7.80;87.30
15997;DHT22;8103;51.340;12.326;2023-04-28T01:34:37;7.80;89.10
15997;DHT22;8103;51.340;12.326;2023-04-28T01:37:04;7.70;90.60
15997;DHT22;8103;51.340;12.326;2023-04-28T01:39:31;7.80;92.40
15997;DHT22;8103;51.340;12.326;2023-04-28T01:41:57;7.90;94.10
15997;DHT22;8103;51.340;12.326;2023-04-28T01:46:52;7.80;97.20
15997;DHT22;8103;51.340;12.326;2023-04-28T01:49:19;8.00;90.70
15997;DHT22;8103;51.340;12.326;2023-04-28T01:51:46;8.00;90.70
15997;DHT22;8103;51.340;12.326;2023-04-28T01:54:13;8.00;89.50
15997;DHT22;8103;51.340;12.326;2023-04-28T01:56:40;8.00;90.00
15997;DHT22;8103;51.340;12.326;2023-04-28T01:59:07;8.00;91.60
15997;DHT22;8103;51.340;12.326;2023-04-28T02:04:01;7.90;94.10
15997;DHT22;8103;51.340;12.326;2023-04-28T02:06:28;7.90;94.80
15997;DHT22;8103;51.340;12.326;2023-04-28T02:08:55;8.00;91.40
15997;DHT22;8103;51.340;12.326;2023-04-28T02:11:22;8.00;91.50
15997;DHT22;8103;51.340;12.326;2023-04-28T02:13:50;8.00;92.00
15997;DHT22;8103;51.340;12.326;2023-04-28T02:18:44;7.90;93.60
15997;DHT22;8103;51.340;12.326;2023-04-28T02:21:11;7.90;90.70
15997;DHT22;8103;51.340;12.326;2023-04-28T02:23:38;7.90;91.20
15997;DHT22;8103;51.340;12.326;2023-04-28T02:26:06;7.90;91.60
15997;DHT22;8103;51.340;12.326;2023-04-28T02:28:33;7.90;89.80
15997;DHT22;8103;51.340;12.326;2023-04-28T02:31:07;7.90;92.50
15997;DHT22;8103;51.340;12.326;2023-04-28T02:33:36;7.80;95.60
15997;DHT22;8103;51.340;12.326;2023-04-28T02:36:04;7.90;93.80
15997;DHT22;8103;51.340;12.326;2023-04-28T02:38:31;7.90;95.30
15997;DHT22;8103;51.340;12.326;2023-04-28T02:40:59;7.90;95.10
15997;DHT22;8103;51.340;12.326;2023-04-28T02:43:28;7.90;94.60
15997;DHT22;8103;51.340;12.326;2023-04-28T02:48:26;7.90;93.50
15997;DHT22;8103;51.340;12.326;2023-04-28T02:50:53;7.90;92.60
15997;DHT22;8103;51.340;12.326;2023-04-28T02:53:20;7.90;92.40
15997;DHT22;8103;51.340;12.326;2023-04-28T02:55:48;7.90;92.50
15997;DHT22;8103;51.340;12.326;2023-04-28T02:58:15;7.90;93.40
15997;DHT22;8103;51.340;12.326;2023-04-28T03:00:43;7.90;94.50
15997;DHT22;8103;51.340;12.326;2023-04-28T03:03:11;7.90;92.50
15997;DHT22;8103;51.340;12.326;2023-04-28T03:05:38;8.00;94.40
15997;DHT22;8103;51.340;12.326;2023-04-28T03:08:05;8.00;99.20
15997;DHT22;8103;51.340;12.326;2023-04-28T03:10:32;8.00;96.10
15997;DHT22;8103;51.340;12.326;2023-04-28T03:12:59;8.00;95.80
15997;DHT22;8103;51.340;12.326;2023-04-28T03:15:26;8.10;94.80
15997;DHT22;8103;51.340;12.326;2023-04-28T03:17:53;8.00;94.10
15997;DHT22;8103;51.340;12.326;2023-04-28T03:20:20;8.10;93.60
15997;DHT22;8103;51.340;12.326;2023-04-28T03:22:46;8.00;94.10
15997;DHT22;8103;51.340;12.326;2023-04-28T03:25:13;8.10;92.80
15997;DHT22;8103;51.340;12.326;2023-04-28T03:27:40;8.10;93.40
15997;DHT22;8103;51.340;12.326;2023-04-28T03:30:07;8.10;91.50
15997;DHT22;8103;51.340;12.326;2023-04-28T03:32:36;8.10;90.80
15997;DHT22;8103;51.340;12.326;2023-04-28T03:35:03;8.10;90.60
15997;DHT22;8103;51.340;12.326;2023-04-28T03:37:30;8.10;90.70
15997;DHT22;8103;51.340;12.326;2023-04-28T03:39:57;8.10;91.10
15997;DHT22;8103;51.340;12.326;2023-04-28T03:42:24;8.00;91.70
15997;DHT22;8103;51.340;12.326;2023-04-28T03:44:52;8.00;92.10
15997;DHT22;8103;51.340;12.326;2023-04-28T03:47:19;8.10;91.10
15997;DHT22;8103;51.340;12.326;2023-04-28T03:49:45;8.00;91.40
15997;DHT22;8103;51.340;12.326;2023-04-28T03:52:14;8.00;91.60
15997;DHT22;8103;51.340;12.326;2023-04-28T03:54:41;8.00;91.90
15997;DHT22;8103;51.340;12.326;2023-04-28T03:57:08;8.00;93.20
15997;DHT22;8103;51.340;12.326;2023-04-28T03:59:38;8.00;91.20
15997;DHT22;8103;51.340;12.326;2023-04-28T04:02:08;7.90;93.60
15997;DHT22;8103;51.340;12.326;2023-04-28T04:04:35;7.80;99.00
15997;DHT22;8103;51.340;12.326;2023-04-28T04:07:02;7.80;94.00
15997;DHT22;8103;51.340;12.326;2023-04-28T04:09:30;7.80;95.00
15997;DHT22;8103;51.340;12.326;2023-04-28T04:11:57;7.80;91.60
15997;DHT22;8103;51.340;12.326;2023-04-28T04:14:25;7.80;90.70
15997;DHT22;8103;51.340;12.326;2023-04-28T04:16:54;7.90;89.80
15997;DHT22;8103;51.340;12.326;2023-04-28T04:19:21;7.90;89.40
15997;DHT22;8103;51.340;12.326;2023-04-28T04:21:49;7.90;89.40
15997;DHT22;8103;51.340;12.326;2023-04-28T04:24:16;8.00;88.70
15997;DHT22;8103;51.340;12.326;2023-04-28T04:26:43;8.00;89.40
15997;DHT22;8103;51.340;12.326;2023-04-28T04:29:10;8.00;89.60
15997;DHT22;8103;51.340;12.326;2023-04-28T04:31:37;8.10;90.00
15997;DHT22;8103;51.340;12.326;2023-04-28T04:34:04;8.10;90.10
15997;DHT22;8103;51.340;12.326;2023-04-28T04:36:32;8.10;90.20
15997;DHT22;8103;51.340;12.326;2023-04-28T04:38:59;8.20;90.60
15997;DHT22;8103;51.340;12.326;2023-04-28T04:41:26;8.20;91.30
15997;DHT22;8103;51.340;12.326;2023-04-28T04:43:53;8.20;93.70
15997;DHT22;8103;51.340;12.326;2023-04-28T04:46:20;8.30;92.70
15997;DHT22;8103;51.340;12.326;2023-04-28T04:48:47;8.30;92.50
15997;DHT22;8103;51.340;12.326;2023-04-28T04:51:14;8.30;92.20
15997;DHT22;8103;51.340;12.326;2023-04-28T04:53:41;8.30;91.50
15997;DHT22;8103;51.340;12.326;2023-04-28T04:56:09;8.30;94.10
15997;DHT22;8103;51.340;12.326;2023-04-28T04:58:36;8.30;90.60
15997;DHT22;8103;51.340;12.326;2023-04-28T05:01:03;8.40;89.50
15997;DHT22;8103;51.340;12.326;2023-04-28T05:03:31;8.50;91.20
15997;DHT22;8103;51.340;12.326;2023-04-28T05:05:58;8.60;93.00
15997;DHT22;8103;51.340;12.326;2023-04-28T05:08:25;8.70;95.30
15997;DHT22;8103;51.340;12.326;2023-04-28T05:10:52;8.80;94.40
15997;DHT22;8103;51.340;12.326;2023-04-28T05:13:19;8.90;92.00
15997;DHT22;8103;51.340;12.326;2023-04-28T05:15:46;9.00;92.20
15997;DHT22;8103;51.340;12.326;2023-04-28T05:18:13;9.00;92.80
15997;DHT22;8103;51.340;12.326;2023-04-28T05:20:40;9.10;91.30
15997;DHT22;8103;51.340;12.326;2023-04-28T05:23:07;9.20;91.40
15997;DHT22;8103;51.340;12.326;2023-04-28T05:29:35;9.30;90.00
15997;DHT22;8103;51.340;12.326;2023-04-28T05:32:02;9.40;90.00
15997;DHT22;8103;51.340;12.326;2023-04-28T05:38:31;9.70;90.10
15997;DHT22;8103;51.340;12.326;2023-04-28T05:41:01;9.70;89.40
15997;DHT22;8103;51.340;12.326;2023-04-28T05:43:30;9.80;89.40
15997;DHT22;8103;51.340;12.326;2023-04-28T05:45:58;9.80;89.70
15997;DHT22;8103;51.340;12.326;2023-04-28T05:52:32;10.00;86.40
15997;DHT22;8103;51.340;12.326;2023-04-28T05:54:59;10.30;87.80
15997;DHT22;8103;51.340;12.326;2023-04-28T06:01:36;10.60;89.50
15997;DHT22;8103;51.340;12.326;2023-04-28T06:04:04;10.70;87.20
15997;DHT22;8103;51.340;12.326;2023-04-28T06:10:38;10.90;86.80
15997;DHT22;8103;51.340;12.326;2023-04-28T06:13:08;10.90;88.60
15997;DHT22;8103;51.340;12.326;2023-04-28T06:15:36;10.90;90.20
15997;DHT22;8103;51.340;12.326;2023-04-28T06:18:03;10.90;88.30
15997;DHT22;8103;51.340;12.326;2023-04-28T06:20:33;11.00;89.30
15997;DHT22;8103;51.340;12.326;2023-04-28T06:23:01;11.10;89.50
15997;DHT22;8103;51.340;12.326;2023-04-28T06:25:28;11.10;89.60
15997;DHT22;8103;51.340;12.326;2023-04-28T06:27:56;11.30;88.60
15997;DHT22;8103;51.340;12.326;2023-04-28T06:30:23;11.50;87.30
15997;DHT22;8103;51.340;12.326;2023-04-28T06:32:50;11.60;85.50
15997;DHT22;8103;51.340;12.326;2023-04-28T06:35:17;11.80;78.30
15997;DHT22;8103;51.340;12.326;2023-04-28T06:37:45;12.00;78.10
15997;DHT22;8103;51.340;12.326;2023-04-28T06:40:12;12.10;77.90
15997;DHT22;8103;51.340;12.326;2023-04-28T06:42:39;12.10;77.40
15997;DHT22;8103;51.340;12.326;2023-04-28T06:45:07;12.10;77.00
15997;DHT22;8103;51.340;12.326;2023-04-28T06:47:34;12.20;76.50
15997;DHT22;8103;51.340;12.326;2023-04-28T06:50:02;12.30;76.50
15997;DHT22;8103;51.340;12.326;2023-04-28T06:52:32;12.40;76.70
15997;DHT22;8103;51.340;12.326;2023-04-28T06:55:06;12.40;76.80
15997;DHT22;8103;51.340;12.326;2023-04-28T06:57:36;12.50;77.00
15997;DHT22;8103;51.340;12.326;2023-04-28T07:00:08;12.60;77.20
15997;DHT22;8103;51.340;12.326;2023-04-28T07:02:37;12.70;77.00
15997;DHT22;8103;51.340;12.326;2023-04-28T07:05:07;12.80;77.00
15997;DHT22;8103;51.340;12.326;2023-04-28T07:07:55;13.00;76.90
15997;DHT22;8103;51.340;12.326;2023-04-28T07:10:22;13.10;76.60
15997;DHT22;8103;51.340;12.326;2023-04-28T07:12:50;13.20;76.40
15997;DHT22;8103;51.340;12.326;2023-04-28T07:15:20;13.30;76.60
15997;DHT22;8103;51.340;12.326;2023-04-28T07:17:47;13.20;77.10
15997;DHT22;8103;51.340;12.326;2023-04-28T07:20:14;13.30;77.50
15997;DHT22;8103;51.340;12.326;2023-04-28T07:22:41;13.40;77.80
15997;DHT22;8103;51.340;12.326;2023-04-28T07:25:08;13.50;78.60
15997;DHT22;8103;51.340;12.326;2023-04-28T07:27:36;13.50;82.80
15997;DHT22;8103;51.340;12.326;2023-04-28T07:30:08;13.60;83.20
15997;DHT22;8103;51.340;12.326;2023-04-28T07:32:51;13.70;82.90
15997;DHT22;8103;51.340;12.326;2023-04-28T07:35:19;13.80;82.00
15997;DHT22;8103;51.340;12.326;2023-04-28T07:37:46;13.80;82.10
15997;DHT22;8103;51.340;12.326;2023-04-28T07:40:14;13.80;81.20
15997;DHT22;8103;51.340;12.326;2023-04-28T07:42:42;13.90;80.90
15997;DHT22;8103;51.340;12.326;2023-04-28T07:45:10;14.00;80.40
15997;DHT22;8103;51.340;12.326;2023-04-28T07:47:37;14.10;80.10
15997;DHT22;8103;51.340;12.326;2023-04-28T07:50:05;14.20;79.10
15997;DHT22;8103;51.340;12.326;2023-04-28T07:52:33;14.30;81.70
15997;DHT22;8103;51.340;12.326;2023-04-28T08:02:24;15.40;64.00
15997;DHT22;8103;51.340;12.326;2023-04-28T08:08:59;15.80;63.10
15997;DHT22;8103;51.340;12.326;2023-04-28T08:11:28;15.90;64.00
15997;DHT22;8103;51.340;12.326;2023-04-28T08:13:56;15.90;66.40
15997;DHT22;8103;51.340;12.326;2023-04-28T08:16:29;16.10;60.80
15997;DHT22;8103;51.340;12.326;2023-04-28T08:19:03;16.10;60.40
15997;DHT22;8103;51.340;12.326;2023-04-28T08:21:30;16.10;59.30
15997;DHT22;8103;51.340;12.326;2023-04-28T08:23:58;15.70;59.80
15997;DHT22;8103;51.340;12.326;2023-04-28T08:26:25;15.50;61.00
15997;DHT22;8103;51.340;12.326;2023-04-28T08:28:52;15.40;62.50
15997;DHT22;8103;51.340;12.326;2023-04-28T08:31:19;15.40;63.50
15997;DHT22;8103;51.340;12.326;2023-04-28T08:33:49;15.30;64.10
15997;DHT22;8103;51.340;12.326;2023-04-28T08:36:17;15.10;64.30
15997;DHT22;8103;51.340;12.326;2023-04-28T08:42:44;14.30;67.70
15997;DHT22;8103;51.340;12.326;2023-04-28T08:45:15;14.00;69.40
15997;DHT22;8103;51.340;12.326;2023-04-28T08:51:53;14.00;73.30
15997;DHT22;8103;51.340;12.326;2023-04-28T08:54:30;14.30;74.00
15997;DHT22;8103;51.340;12.326;2023-04-28T08:57:01;14.40;74.40
15997;DHT22;8103;51.340;12.326;2023-04-28T08:59:30;14.60;75.90
15997;DHT22;8103;51.340;12.326;2023-04-28T09:01:58;14.60;76.30
15997;DHT22;8103;51.340;12.326;2023-04-28T09:04:26;14.40;77.40
15997;DHT22;8103;51.340;12.326;2023-04-28T09:06:53;14.20;76.50
15997;DHT22;8103;51.340;12.326;2023-04-28T09:09:22;13.90;78.70
15997;DHT22;8103;51.340;12.326;2023-04-28T09:12:02;13.70;80.00
15997;DHT22;8103;51.340;12.326;2023-04-28T09:14:35;13.70;81.10
15997;DHT22;8103;51.340;12.326;2023-04-28T09:17:11;13.60;83.80
15997;DHT22;8103;51.340;12.326;2023-04-28T09:19:42;13.40;89.00
15997;DHT22;8103;51.340;12.326;2023-04-28T09:22:09;13.20;91.40
15997;DHT22;8103;51.340;12.326;2023-04-28T09:24:54;13.30;92.60
15997;DHT22;8103;51.340;12.326;2023-04-28T09:27:28;13.40;93.30
15997;DHT22;8103;51.340;12.326;2023-04-28T09:29:55;13.70;93.90
15997;DHT22;8103;51.340;12.326;2023-04-28T09:32:24;14.00;90.60
15997;DHT22;8103;51.340;12.326;2023-04-28T09:34:54;13.90;91.90
15997;DHT22;8103;51.340;12.326;2023-04-28T09:37:27;14.00;91.20
15997;DHT22;8103;51.340;12.326;2023-04-28T09:40:06;14.30;90.90
15997;DHT22;8103;51.340;12.326;2023-04-28T09:42:36;14.30;91.90
15997;DHT22;8103;51.340;12.326;2023-04-28T09:47:35;14.30;90.80
15997;DHT22;8103;51.340;12.326;2023-04-28T09:52:44;14.10;88.40
15997;DHT22;8103;51.340;12.326;2023-04-28T09:57:55;14.00;90.10
15997;DHT22;8103;51.340;12.326;2023-04-28T10:04:26;14.20;93.50
15997;DHT22;8103;51.340;12.326;2023-04-28T10:09:24;13.90;91.60
15997;DHT22;8103;51.340;12.326;2023-04-28T10:11:53;13.70;93.60
15997;DHT22;8103;51.340;12.326;2023-04-28T10:14:20;13.70;93.80
15997;DHT22;8103;51.340;12.326;2023-04-28T10:16:47;13.70;94.90
15997;DHT22;8103;51.340;12.326;2023-04-28T10:19:17;13.80;96.70
15997;DHT22;8103;51.340;12.326;2023-04-28T10:25:11;14.00;93.20
15997;DHT22;8103;51.340;12.326;2023-04-28T10:27:52;14.00;95.10
15997;DHT22;8103;51.340;12.326;2023-04-28T10:30:21;14.10;94.60
15997;DHT22;8103;51.340;12.326;2023-04-28T10:33:23;14.20;94.70
15997;DHT22;8103;51.340;12.326;2023-04-28T10:35:55;14.30;95.30
15997;DHT22;8103;51.340;12.326;2023-04-28T10:56:23;15.00;99.90
15997;DHT22;8103;51.340;12.326;2023-04-28T11:03:48;14.30;99.90
15997;DHT22;8103;51.340;12.326;2023-04-28T11:06:30;14.00;99.90
15997;DHT22;8103;51.340;12.326;2023-04-28T11:12:05;13.70;99.90
15997;DHT22;8103;51.340;12.326;2023-04-28T11:14:38;13.50;99.90
15997;DHT22;8103;51.340;12.326;2023-04-28T11:17:10;13.40;99.90
15997;DHT22;8103;51.340;12.326;2023-04-28T11:22:18;13.30;99.90
15997;DHT22;8103;51.340;12.326;2023-04-28T11:24:58;13.30;99.90
15997;DHT22;8103;51.340;12.326;2023-04-28T11:27:31;13.40;99.90
15997;DHT22;8103;51.340;12.326;2023-04-28T11:34:58;13.50;99.90
15997;DHT22;8103;51.340;12.326;2023-04-28T11:37:28;13.70;99.90
15997;DHT22;8103;51.340;12.326;2023-04-28T11:39:55;13.80;99.90
15997;DHT22;8103;51.340;12.326;2023-04-28T11:46:31;14.00;99.90
15997;DHT22;8103;51.340;12.326;2023-04-28T11:49:04;14.20;99.90
15997;DHT22;8103;51.340;12.326;2023-04-28T11:51:35;14.30;99.90
15997;DHT22;8103;51.340;12.326;2023-04-28T11:54:07;14.60;99.90
15997;DHT22;8103;51.340;12.326;2023-04-28T11:56:38;15.00;99.90
15997;DHT22;8103;51.340;12.326;2023-04-28T12:02:47;17.00;99.90
15997;DHT22;8103;51.340;12.326;2023-04-28T12:05:16;18.70;98.40
15997;DHT22;8103;51.340;12.326;2023-04-28T12:07:46;19.40;95.20
15997;DHT22;8103;51.340;12.326;2023-04-28T12:10:16;19.60;99.90
15997;DHT22;8103;51.340;12.326;2023-04-28T12:16:50;22.40;70.90
15997;DHT22;8103;51.340;12.326;2023-04-28T12:19:18;22.50;65.50
15997;DHT22;8103;51.340;12.326;2023-04-28T12:22:06;22.10;65.50
15997;DHT22;8103;51.340;12.326;2023-04-28T12:24:34;21.80;67.20
15997;DHT22;8103;51.340;12.326;2023-04-28T12:27:18;21.30;66.20
15997;DHT22;8103;51.340;12.326;2023-04-28T12:33:50;20.10;70.80
15997;DHT22;8103;51.340;12.326;2023-04-28T12:36:19;19.10;73.20
15997;DHT22;8103;51.340;12.326;2023-04-28T12:38:48;18.50;75.60
15997;DHT22;8103;51.340;12.326;2023-04-28T12:41:15;18.10;78.00
15997;DHT22;8103;51.340;12.326;2023-04-28T12:43:42;17.80;80.10
15997;DHT22;8103;51.340;12.326;2023-04-28T12:46:10;17.60;81.20
15997;DHT22;8103;51.340;12.326;2023-04-28T12:48:40;17.30;82.70
15997;DHT22;8103;51.340;12.326;2023-04-28T12:55:13;17.00;85.30
15997;DHT22;8103;51.340;12.326;2023-04-28T12:57:40;16.90;86.50
15997;DHT22;8103;51.340;12.326;2023-04-28T13:00:08;16.60;88.10
15997;DHT22;8103;51.340;12.326;2023-04-28T13:02:36;16.30;89.20
15997;DHT22;8103;51.340;12.326;2023-04-28T13:05:07;16.20;90.30
15997;DHT22;8103;51.340;12.326;2023-04-28T13:07:39;16.10;90.90
15997;DHT22;8103;51.340;12.326;2023-04-28T13:10:07;16.00;91.20
15997;DHT22;8103;51.340;12.326;2023-04-28T13:12:35;16.10;91.70
15997;DHT22;8103;51.340;12.326;2023-04-28T13:15:03;16.10;91.90
15997;DHT22;8103;51.340;12.326;2023-04-28T13:17:30;16.20;91.40
15997;DHT22;8103;51.340;12.326;2023-04-28T13:19:56;16.20;91.10
15997;DHT22;8103;51.340;12.326;2023-04-28T13:22:24;16.10;91.20
15997;DHT22;8103;51.340;12.326;2023-04-28T13:24:51;16.00;91.20
15997;DHT22;8103;51.340;12.326;2023-04-28T13:27:18;15.90;91.60
15997;DHT22;8103;51.340;12.326;2023-04-28T13:29:45;15.80;91.60
15997;DHT22;8103;51.340;12.326;2023-04-28T13:32:12;15.70;91.70
15997;DHT22;8103;51.340;12.326;2023-04-28T13:34:39;15.60;92.00
15997;DHT22;8103;51.340;12.326;2023-04-28T13:37:06;15.50;92.30
15997;DHT22;8103;51.340;12.326;2023-04-28T13:39:34;15.40;92.80
15997;DHT22;8103;51.340;12.326;2023-04-28T13:42:01;15.30;92.90
15997;DHT22;8103;51.340;12.326;2023-04-28T13:44:28;15.30;93.30
15997;DHT22;8103;51.340;12.326;2023-04-28T13:46:55;15.30;93.30
15997;DHT22;8103;51.340;12.326;2023-04-28T13:49:22;15.20;93.30
15997;DHT22;8103;51.340;12.326;2023-04-28T13:51:49;15.20;99.90
15997;DHT22;8103;51.340;12.326;2023-04-28T13:54:16;15.20;99.90
15997;DHT22;8103;51.340;12.326;2023-04-28T13:56:43;15.30;99.90
15997;DHT22;8103;51.340;12.326;2023-04-28T13:59:10;15.30;99.90
15997;DHT22;8103;51.340;12.326;2023-04-28T14:01:36;15.40;99.90
15997;DHT22;8103;51.340;12.326;2023-04-28T14:04:03;15.50;98.60
15997;DHT22;8103;51.340;12.326;2023-04-28T14:06:30;15.60;99.90
15997;DHT22;8103;51.340;12.326;2023-04-28T14:08:59;15.60;99.90
15997;DHT22;8103;51.340;12.326;2023-04-28T14:11:26;15.60;99.90
15997;DHT22;8103;51.340;12.326;2023-04-28T14:13:53;15.70;99.90
15997;DHT22;8103;51.340;12.326;2023-04-28T14:16:20;15.60;99.10
15997;DHT22;8103;51.340;12.326;2023-04-28T14:22:53;15.70;99.90
15997;DHT22;8103;51.340;12.326;2023-04-28T14:25:21;15.60;97.40
15997;DHT22;8103;51.340;12.326;2023-04-28T14:27:49;15.50;97.90
15997;DHT22;8103;51.340;12.326;2023-04-28T14:30:16;15.50;98.90
15997;DHT22;8103;51.340;12.326;2023-04-28T14:32:44;15.50;97.20
15997;DHT22;8103;51.340;12.326;2023-04-28T14:35:14;15.50;99.10
15997;DHT22;8103;51.340;12.326;2023-04-28T14:37:42;15.60;95.20
15997;DHT22;8103;51.340;12.326;2023-04-28T14:40:09;15.60;95.40
15997;DHT22;8103;51.340;12.326;2023-04-28T14:42:36;15.70;95.60
15997;DHT22;8103;51.340;12.326;2023-04-28T14:45:08;15.80;94.00
15997;DHT22;8103;51.340;12.326;2023-04-28T14:47:37;15.80;93.70
15997;DHT22;8103;51.340;12.326;2023-04-28T14:50:06;15.90;93.70
15997;DHT22;8103;51.340;12.326;2023-04-28T14:52:33;15.90;93.70
15997;DHT22;8103;51.340;12.326;2023-04-28T14:55:00;16.00;93.80
15997;DHT22;8103;51.340;12.326;2023-04-28T15:01:34;15.60;99.90
15997;DHT22;8103;51.340;12.326;2023-04-28T15:04:01;15.40;99.90
15997;DHT22;8103;51.340;12.326;2023-04-28T15:06:28;15.40;99.90
15997;DHT22;8103;51.340;12.326;2023-04-28T15:08:55;15.40;99.90
15997;DHT22;8103;51.340;12.326;2023-04-28T15:11:22;15.30;99.90
15997;DHT22;8103;51.340;12.326;2023-04-28T15:13:50;15.10;99.90
15997;DHT22;8103;51.340;12.326;2023-04-28T15:16:18;15.10;99.50
15997;DHT22;8103;51.340;12.326;2023-04-28T15:18:45;15.10;99.90
15997;DHT22;8103;51.340;12.326;2023-04-28T15:25:18;15.00;99.90
15997;DHT22;8103;51.340;12.326;2023-04-28T15:27:45;15.00;99.90
15997;DHT22;8103;51.340;12.326;2023-04-28T15:30:12;14.90;99.90
15997;DHT22;8103;51.340;12.326;2023-04-28T15:32:39;14.90;99.90
15997;DHT22;8103;51.340;12.326;2023-04-28T15:35:07;14.90;99.90
15997;DHT22;8103;51.340;12.326;2023-04-28T15:37:43;14.90;99.90
15997;DHT22;8103;51.340;12.326;2023-04-28T15:40:15;14.90;99.90
15997;DHT22;8103;51.340;12.326;2023-04-28T15:42:44;14.80;99.90
15997;DHT22;8103;51.340;12.326;2023-04-28T15:45:15;14.70;99.90
15997;DHT22;8103;51.340;12.326;2023-04-28T15:47:45;14.80;99.90
15997;DHT22;8103;51.340;12.326;2023-04-28T15:50:13;14.80;99.90
15997;DHT22;8103;51.340;12.326;2023-04-28T15:52:42;14.80;99.90
15997;DHT22;8103;51.340;12.326;2023-04-28T15:55:13;14.80;99.90
15997;DHT22;8103;51.340;12.326;2023-04-28T15:57:45;14.70;99.90
15997;DHT22;8103;51.340;12.326;2023-04-28T16:00:14;14.70;99.90
15997;DHT22;8103;51.340;12.326;2023-04-28T16:02:42;14.60;99.90
15997;DHT22;8103;51.340;12.326;2023-04-28T16:09:16;14.60;99.90
15997;DHT22;8103;51.340;12.326;2023-04-28T16:11:43;14.50;99.90
15997;DHT22;8103;51.340;12.326;2023-04-28T16:14:10;14.50;99.90
15997;DHT22;8103;51.340;12.326;2023-04-28T16:16:37;14.50;99.90
15997;DHT22;8103;51.340;12.326;2023-04-28T16:19:04;14.50;99.90
15997;DHT22;8103;51.340;12.326;2023-04-28T16:21:31;14.60;99.90
15997;DHT22;8103;51.340;12.326;2023-04-28T16:23:58;14.50;99.90
15997;DHT22;8103;51.340;12.326;2023-04-28T16:26:27;13.90;99.90
15997;DHT22;8103;51.340;12.326;2023-04-28T16:28:54;14.50;99.90
15997;DHT22;8103;51.340;12.326;2023-04-28T16:31:21;14.50;99.90
15997;DHT22;8103;51.340;12.326;2023-04-28T16:33:48;14.50;99.90
15997;DHT22;8103;51.340;12.326;2023-04-28T16:36:15;14.50;99.90
15997;DHT22;8103;51.340;12.326;2023-04-28T16:38:42;14.50;99.90
15997;DHT22;8103;51.340;12.326;2023-04-28T16:41:11;14.50;99.90
15997;DHT22;8103;51.340;12.326;2023-04-28T16:43:38;14.40;99.90
15997;DHT22;8103;51.340;12.326;2023-04-28T16:46:05;14.40;99.90
15997;DHT22;8103;51.340;12.326;2023-04-28T16:48:33;14.40;99.90
15997;DHT22;8103;51.340;12.326;2023-04-28T16:51:00;14.40;99.90
15997;DHT22;8103;51.340;12.326;2023-04-28T16:53:26;14.40;99.90
15997;DHT22;8103;51.340;12.326;2023-04-28T16:55:53;14.30;99.90
15997;DHT22;8103;51.340;12.326;2023-04-28T16:58:20;14.30;99.90
15997;DHT22;8103;51.340;12.326;2023-04-28T17:00:47;14.30;99.90
15997;DHT22;8103;51.340;12.326;2023-04-28T17:07:20;14.30;99.90
15997;DHT22;8103;51.340;12.326;2023-04-28T17:09:50;14.30;99.90
15997;DHT22;8103;51.340;12.326;2023-04-28T17:12:17;14.30;99.90
15997;DHT22;8103;51.340;12.326;2023-04-28T17:14:48;14.20;99.90
15997;DHT22;8103;51.340;12.326;2023-04-28T17:17:16;14.10;99.90
15997;DHT22;8103;51.340;12.326;2023-04-28T17:23:46;14.00;99.90
15997;DHT22;8103;51.340;12.326;2023-04-28T17:26:13;14.00;99.90
15997;DHT22;8103;51.340;12.326;2023-04-28T17:28:51;13.90;99.90
15997;DHT22;8103;51.340;12.326;2023-04-28T17:31:24;13.90;99.90
15997;DHT22;8103;51.340;12.326;2023-04-28T17:33:55;13.90;99.90
15997;DHT22;8103;51.340;12.326;2023-04-28T17:40:29;13.80;99.90
15997;DHT22;8103;51.340;12.326;2023-04-28T17:42:59;13.80;99.90
15997;DHT22;8103;51.340;12.326;2023-04-28T17:45:26;13.70;99.90
15997;DHT22;8103;51.340;12.326;2023-04-28T17:51:59;13.90;99.90
15997;DHT22;8103;51.340;12.326;2023-04-28T17:54:26;13.80;99.90
15997;DHT22;8103;51.340;12.326;2023-04-28T17:56:53;13.70;99.90
15997;DHT22;8103;51.340;12.326;2023-04-28T17:59:27;13.70;99.90
15997;DHT22;8103;51.340;12.326;2023-04-28T18:01:54;14.30;99.90
15997;DHT22;8103;51.340;12.326;2023-04-28T18:04:22;13.70;99.90
15997;DHT22;8103;51.340;12.326;2023-04-28T18:06:49;13.70;99.90
15997;DHT22;8103;51.340;12.326;2023-04-28T18:09:16;13.70;99.90
15997;DHT22;8103;51.340;12.326;2023-04-28T18:11:43;13.70;99.90
15997;DHT22;8103;51.340;12.326;2023-04-28T18:14:10;13.70;99.90
15997;DHT22;8103;51.340;12.326;2023-04-28T18:16:37;13.60;99.90
15997;DHT22;8103;51.340;12.326;2023-04-28T18:19:04;13.60;99.90
15997;DHT22;8103;51.340;12.326;2023-04-28T18:25:41;13.50;99.90
15997;DHT22;8103;51.340;12.326;2023-04-28T18:28:09;13.50;99.90